Time;durP1;ratioP1;P1;durP2;ratioP2;P2;SDS_P1;SDS_P2;PMS_P1;PMS_P2;Temp;Humidity;BMP_temperature;BMP_pressure;BME280_temperature;BME280_humidity;BME280_pressure;Samples;Min_cycle;Max_cycle;Signal;HPM_P1;HPM_P2
2021/04/15 00:01:49;;;;;;;1.57;1.30;;;4.90;96.90;;;;;;5019541;28;20502;-79
2021/04/15 00:04:16;;;;;;;1.60;1.40;;;4.90;96.20;;;;;;5038330;28;20460;-75
2021/04/15 00:06:45;;;;;;;1.50;1.30;;;4.80;96.80;;;;;;5026392;28;20480;-79
2021/04/15 00:09:14;;;;;;;1.50;1.30;;;4.80;96.20;;;;;;5031322;28;20490;-78
2021/04/15 00:11:42;;;;;;;1.50;1.33;;;4.80;97.10;;;;;;5017750;28;20565;-75
2021/04/15 00:14:11;;;;;;;1.57;1.40;;;4.70;96.80;;;;;;5039126;28;20490;-78
2021/04/15 00:16:38;;;;;;;1.50;1.40;;;4.60;97.10;;;;;;5017425;28;20479;-76
2021/04/15 00:19:06;;;;;;;1.57;1.43;;;4.60;96.40;;;;;;5036518;28;20601;-76
2021/04/15 00:21:33;;;;;;;1.50;1.30;;;4.50;96.30;;;;;;5015241;28;20487;-77
2021/04/15 00:24:00;;;;;;;1.50;1.40;;;4.40;96.40;;;;;;5038172;28;20455;-78
2021/04/15 00:26:28;;;;;;;1.60;1.50;;;4.40;97.60;;;;;;5015837;28;20493;-76
2021/04/15 00:28:55;;;;;;;1.60;1.40;;;4.30;97.40;;;;;;5032366;28;20511;-77
2021/04/15 00:31:23;;;;;;;1.60;1.40;;;4.30;98.20;;;;;;5012021;28;20558;-79
2021/04/15 00:33:50;;;;;;;1.60;1.37;;;4.20;97.70;;;;;;5011102;28;20488;-75
2021/04/15 00:36:19;;;;;;;1.60;1.43;;;4.10;96.90;;;;;;5020827;28;20572;-75
2021/04/15 00:38:45;;;;;;;1.60;1.40;;;4.10;98.10;;;;;;5039378;28;20499;-76
2021/04/15 00:41:13;;;;;;;1.60;1.40;;;4.00;98.10;;;;;;5013490;28;20865;-76
2021/04/15 00:43:43;;;;;;;1.60;1.40;;;4.00;97.90;;;;;;5025960;28;20490;-78
2021/04/15 00:46:45;;;;;;;1.50;1.40;;;3.90;97.80;;;;;;5017691;28;20475;-79
2021/04/15 00:49:15;;;;;;;1.60;1.40;;;3.90;98.20;;;;;;5022845;28;20467;-77
2021/04/15 00:51:46;;;;;;;1.53;1.40;;;3.80;98.20;;;;;;5016453;28;20516;-78
2021/04/15 00:54:18;;;;;;;1.60;1.47;;;3.70;98.20;;;;;;5024795;28;20865;-79
2021/04/15 00:56:46;;;;;;;1.60;1.40;;;3.70;98.20;;;;;;5015697;28;20485;-76
2021/04/15 00:59:13;;;;;;;1.60;1.50;;;3.70;98.20;;;;;;5029230;28;21056;-78
2021/04/15 01:01:40;;;;;;;1.60;1.40;;;3.60;98.20;;;;;;5019998;23;20488;-78
2021/04/15 01:04:06;;;;;;;1.53;1.40;;;3.60;98.20;;;;;;5000903;28;21050;-76
2021/04/15 01:06:34;;;;;;;1.70;1.60;;;3.50;98.20;;;;;;4994884;28;20492;-79
2021/04/15 01:09:02;;;;;;;1.50;1.40;;;3.40;98.20;;;;;;4993045;28;20472;-75
2021/04/15 01:11:42;;;;;;;1.60;1.40;;;3.40;98.20;;;;;;4996833;28;20806;-78
2021/04/15 01:14:18;;;;;;;1.60;1.30;;;3.40;98.20;;;;;;4990204;28;20580;-79
2021/04/15 01:16:51;;;;;;;1.60;1.50;;;3.40;98.20;;;;;;4999264;28;20472;-76
2021/04/15 01:19:40;;;;;;;1.60;1.40;;;3.30;98.20;;;;;;5011436;28;20467;-75
2021/04/15 01:22:27;;;;;;;1.70;1.60;;;3.30;98.20;;;;;;5005505;28;20526;-77
2021/04/15 01:25:01;;;;;;;1.53;1.40;;;3.20;98.20;;;;;;5008120;28;20492;-76
2021/04/15 01:27:36;;;;;;;1.60;1.40;;;3.20;98.20;;;;;;4998714;28;20491;-76
2021/04/15 01:30:21;;;;;;;1.60;1.50;;;3.20;98.20;;;;;;5012537;28;20553;-77
2021/04/15 01:32:59;;;;;;;1.60;1.50;;;3.10;98.20;;;;;;4993512;28;20534;-77
2021/04/15 01:35:30;;;;;;;1.60;1.50;;;3.10;98.20;;;;;;5018683;28;20466;-78
2021/04/15 01:38:04;;;;;;;1.60;1.50;;;3.10;98.20;;;;;;5009572;28;20487;-77
2021/04/15 01:40:35;;;;;;;1.60;1.40;;;3.00;98.20;;;;;;5010544;28;20486;-77
2021/04/15 01:43:10;;;;;;;1.60;1.50;;;3.00;98.20;;;;;;4999901;28;20550;-75
2021/04/15 01:45:38;;;;;;;1.60;1.40;;;2.90;98.20;;;;;;5019509;28;20464;-77
2021/04/15 01:48:08;;;;;;;1.60;1.50;;;2.90;98.20;;;;;;5003190;28;20522;-76
2021/04/15 01:50:38;;;;;;;1.60;1.50;;;2.90;98.20;;;;;;5010405;28;20526;-78
2021/04/15 01:53:09;;;;;;;1.60;1.50;;;2.80;98.20;;;;;;5005945;28;20490;-76
2021/04/15 01:55:40;;;;;;;1.60;1.50;;;2.80;98.20;;;;;;5013424;28;20605;-77
2021/04/15 01:58:12;;;;;;;1.70;1.60;;;2.80;98.20;;;;;;4997741;28;20832;-77
2021/04/15 02:00:42;;;;;;;1.60;1.40;;;2.80;98.20;;;;;;5009016;28;20518;-75
2021/04/15 02:03:16;;;;;;;1.60;1.50;;;2.70;98.20;;;;;;5002336;28;20566;-77
2021/04/15 02:05:44;;;;;;;1.60;1.50;;;2.70;98.20;;;;;;5013974;28;20547;-79
2021/04/15 02:08:16;;;;;;;1.60;1.50;;;2.70;98.20;;;;;;5000055;28;20511;-81
2021/04/15 02:10:46;;;;;;;1.60;1.50;;;2.70;98.20;;;;;;5013473;28;20506;-79
2021/04/15 02:13:15;;;;;;;1.70;1.60;;;2.60;98.20;;;;;;4994102;28;20510;-75
2021/04/15 02:15:46;;;;;;;1.70;1.60;;;2.60;98.20;;;;;;5018392;28;21008;-77
2021/04/15 02:18:19;;;;;;;1.60;1.50;;;2.50;98.20;;;;;;4986791;28;20945;-77
2021/04/15 02:20:49;;;;;;;1.70;1.60;;;2.50;98.20;;;;;;5017161;28;20544;-78
2021/04/15 02:23:22;;;;;;;1.60;1.50;;;2.50;98.20;;;;;;4993558;28;20791;-79
2021/04/15 02:25:54;;;;;;;1.63;1.53;;;2.40;98.20;;;;;;5003805;28;20466;-78
2021/04/15 02:28:25;;;;;;;1.80;1.70;;;2.40;98.20;;;;;;5015671;28;20471;-77
2021/04/15 02:30:59;;;;;;;1.63;1.53;;;2.40;98.20;;;;;;5009905;28;20480;-76
2021/04/15 02:33:31;;;;;;;1.60;1.50;;;2.40;98.20;;;;;;5008297;28;20511;-76
2021/04/15 02:36:01;;;;;;;1.60;1.50;;;2.30;98.20;;;;;;5004389;28;20462;-78
2021/04/15 02:38:35;;;;;;;1.60;1.50;;;2.30;98.20;;;;;;5014562;28;20468;-76
2021/04/15 02:41:04;;;;;;;1.60;1.50;;;2.30;98.20;;;;;;4999189;28;20487;-77
2021/04/15 02:43:42;;;;;;;1.60;1.40;;;2.30;98.20;;;;;;5008089;28;20963;-77
2021/04/15 02:46:12;;;;;;;1.70;1.60;;;2.20;98.20;;;;;;5003743;28;20956;-79
2021/04/15 02:48:41;;;;;;;1.70;1.60;;;2.20;98.20;;;;;;5011071;28;20470;-77
2021/04/15 02:51:12;;;;;;;1.60;1.40;;;2.20;98.20;;;;;;4999150;28;20538;-78
2021/04/15 02:53:43;;;;;;;1.60;1.50;;;2.20;98.20;;;;;;5011639;28;20939;-75
2021/04/15 02:56:16;;;;;;;1.60;1.40;;;2.20;98.20;;;;;;5003548;28;21057;-77
2021/04/15 02:58:47;;;;;;;1.60;1.50;;;2.20;98.20;;;;;;5029288;23;20491;-76
2021/04/15 03:01:18;;;;;;;1.60;1.50;;;2.20;98.20;;;;;;4998971;28;20477;-79
2021/04/15 03:03:49;;;;;;;1.60;1.50;;;2.20;98.20;;;;;;4999789;28;20469;-77
2021/04/15 03:06:18;;;;;;;1.70;1.60;;;2.20;98.20;;;;;;4994439;28;20484;-78
2021/04/15 03:08:48;;;;;;;1.60;1.50;;;2.20;98.20;;;;;;5001338;28;20475;-78
2021/04/15 03:11:20;;;;;;;1.80;1.70;;;2.10;98.20;;;;;;4997990;28;20512;-78
2021/04/15 03:13:51;;;;;;;1.70;1.60;;;2.10;98.20;;;;;;5002970;28;20492;-76
2021/04/15 03:16:23;;;;;;;1.70;1.60;;;2.00;98.20;;;;;;4998627;28;20948;-78
2021/04/15 03:18:53;;;;;;;1.60;1.50;;;2.00;98.20;;;;;;5023899;28;20464;-75
2021/04/15 03:21:24;;;;;;;1.70;1.60;;;2.00;98.20;;;;;;4994536;28;20481;-75
2021/04/15 03:23:54;;;;;;;1.60;1.50;;;2.00;98.20;;;;;;5002274;28;20452;-76
2021/04/15 03:26:33;;;;;;;1.60;1.50;;;1.90;98.20;;;;;;4986956;28;21014;-78
2021/04/15 03:29:16;;;;;;;1.63;1.53;;;1.90;98.20;;;;;;5007530;28;20551;-76
2021/04/15 03:31:48;;;;;;;1.73;1.63;;;1.80;98.20;;;;;;4983154;28;20857;-75
2021/04/15 03:34:22;;;;;;;1.70;1.60;;;1.80;98.20;;;;;;4997371;28;20485;-76
2021/04/15 03:36:51;;;;;;;1.70;1.60;;;1.80;98.20;;;;;;4991603;28;21042;-75
2021/04/15 03:39:24;;;;;;;1.70;1.60;;;1.80;98.20;;;;;;5007256;28;20464;-75
2021/04/15 03:41:53;;;;;;;1.70;1.60;;;1.80;98.20;;;;;;4993505;28;20504;-75
2021/04/15 03:44:23;;;;;;;1.87;1.77;;;1.80;98.20;;;;;;5002235;28;20469;-77
2021/04/15 03:46:54;;;;;;;1.70;1.60;;;1.80;98.20;;;;;;4996756;28;20568;-75
2021/04/15 03:49:27;;;;;;;1.60;1.50;;;1.80;98.20;;;;;;5028721;23;20503;-75
2021/04/15 03:52:00;;;;;;;1.60;1.50;;;1.80;98.20;;;;;;5001975;28;20495;-77
2021/04/15 03:54:31;;;;;;;1.70;1.60;;;1.70;98.20;;;;;;5007122;28;20606;-76
2021/04/15 03:57:00;;;;;;;1.60;1.50;;;1.70;98.20;;;;;;4987775;28;20481;-75
2021/04/15 03:59:38;;;;;;;1.70;1.60;;;1.70;98.20;;;;;;5000330;28;20499;-75
2021/04/15 04:02:10;;;;;;;1.67;1.57;;;1.70;98.20;;;;;;5007482;28;20487;-77
2021/04/15 04:04:41;;;;;;;1.60;1.50;;;1.70;98.20;;;;;;5011296;28;20461;-76
2021/04/15 04:07:12;;;;;;;1.60;1.50;;;1.70;98.20;;;;;;4994382;28;21065;-75
2021/04/15 04:09:43;;;;;;;1.70;1.60;;;1.70;98.20;;;;;;5001834;28;20983;-76
2021/04/15 04:12:17;;;;;;;3.20;3.00;;;1.70;98.20;;;;;;5003395;28;20487;-74
2021/04/15 04:14:52;;;;;;;1.80;1.70;;;1.70;98.20;;;;;;5006962;28;20465;-76
2021/04/15 04:17:24;;;;;;;1.67;1.57;;;1.70;98.20;;;;;;4991816;28;20510;-75
2021/04/15 04:19:54;;;;;;;1.60;1.50;;;1.70;98.20;;;;;;5000951;28;20468;-75
2021/04/15 04:22:26;;;;;;;1.73;1.63;;;1.60;98.20;;;;;;4996004;28;20574;-75
2021/04/15 04:24:57;;;;;;;1.70;1.60;;;1.60;98.20;;;;;;5003623;28;20488;-77
2021/04/15 04:27:28;;;;;;;1.70;1.60;;;1.60;98.20;;;;;;4993059;28;21165;-76
2021/04/15 04:29:58;;;;;;;1.63;1.53;;;1.60;98.20;;;;;;5005262;28;20464;-76
2021/04/15 04:32:28;;;;;;;1.90;1.80;;;1.60;98.20;;;;;;4990225;28;20526;-77
2021/04/15 04:34:57;;;;;;;1.70;1.60;;;1.50;98.20;;;;;;4999592;28;20984;-76
2021/04/15 04:37:26;;;;;;;1.70;1.60;;;1.50;98.20;;;;;;5008458;28;20487;-76
2021/04/15 04:39:57;;;;;;;1.70;1.60;;;1.50;98.20;;;;;;5007085;28;20464;-77
2021/04/15 04:42:27;;;;;;;1.70;1.60;;;1.50;98.20;;;;;;4989223;28;20484;-75
2021/04/15 04:44:58;;;;;;;1.60;1.50;;;1.50;98.20;;;;;;5001339;28;20464;-77
2021/04/15 04:47:38;;;;;;;1.70;1.60;;;1.50;98.20;;;;;;5062721;23;20478;-77
2021/04/15 04:50:08;;;;;;;1.70;1.60;;;1.50;98.20;;;;;;5021315;28;20455;-77
2021/04/15 04:52:36;;;;;;;1.60;1.50;;;1.40;98.20;;;;;;4999818;28;20480;-76
2021/04/15 04:55:11;;;;;;;1.67;1.57;;;1.40;98.20;;;;;;5009392;28;20560;-77
2021/04/15 04:57:41;;;;;;;1.70;1.60;;;1.40;98.20;;;;;;5016770;23;20484;-75
2021/04/15 05:00:11;;;;;;;1.70;1.60;;;1.40;98.20;;;;;;5018663;28;20483;-77
2021/04/15 05:02:39;;;;;;;1.60;1.50;;;1.40;98.20;;;;;;4986996;28;20487;-73
2021/04/15 05:05:08;;;;;;;1.70;1.60;;;1.40;98.20;;;;;;4996105;28;20464;-76
2021/04/15 05:07:37;;;;;;;1.60;1.50;;;1.40;98.20;;;;;;5004381;28;20516;-74
2021/04/15 05:10:05;;;;;;;1.70;1.60;;;1.40;98.20;;;;;;4997179;28;21005;-75
2021/04/15 05:12:34;;;;;;;1.70;1.60;;;1.50;98.20;;;;;;4991205;28;20834;-73
2021/04/15 05:15:02;;;;;;;1.60;1.50;;;1.50;98.20;;;;;;5001444;28;20503;-75
2021/04/15 05:17:30;;;;;;;1.70;1.60;;;1.50;98.20;;;;;;4989756;28;20488;-75
2021/04/15 05:20:00;;;;;;;1.63;1.53;;;1.50;98.20;;;;;;4997199;28;20613;-75
2021/04/15 05:22:32;;;;;;;1.70;1.60;;;1.60;98.20;;;;;;4990773;28;20507;-74
2021/04/15 05:25:04;;;;;;;1.60;1.50;;;1.60;98.20;;;;;;4998227;28;20884;-75
2021/04/15 05:27:33;;;;;;;1.60;1.50;;;1.60;98.20;;;;;;5003751;28;20507;-73
2021/04/15 05:30:14;;;;;;;1.70;1.60;;;1.70;98.20;;;;;;5005975;28;20482;-75
2021/04/15 05:32:43;;;;;;;1.70;1.60;;;1.70;98.20;;;;;;4983522;28;20477;-74
2021/04/15 05:35:15;;;;;;;1.60;1.50;;;1.70;98.20;;;;;;5006530;28;20460;-76
2021/04/15 05:37:43;;;;;;;1.70;1.60;;;1.80;98.20;;;;;;4981967;28;21101;-76
2021/04/15 05:40:10;;;;;;;1.67;1.57;;;1.90;98.20;;;;;;5004271;28;20659;-76
2021/04/15 05:42:43;;;;;;;1.80;1.70;;;2.00;98.20;;;;;;4990674;28;20549;-76
2021/04/15 05:45:15;;;;;;;1.60;1.50;;;2.20;98.20;;;;;;4999370;28;20523;-75
2021/04/15 05:47:53;;;;;;;1.60;1.50;;;2.40;98.20;;;;;;5009921;28;20536;-78
2021/04/15 05:50:23;;;;;;;6.33;5.93;;;2.60;98.20;;;;;;5004051;28;20548;-76
2021/04/15 05:52:54;;;;;;;1.60;1.47;;;2.70;98.20;;;;;;4994099;28;20537;-76
2021/04/15 05:55:27;;;;;;;1.60;1.50;;;3.00;98.20;;;;;;5000419;28;20547;-76
2021/04/15 05:58:00;;;;;;;1.57;1.40;;;3.30;98.20;;;;;;4994351;28;20925;-77
2021/04/15 06:00:35;;;;;;;1.57;1.40;;;3.40;98.20;;;;;;5002309;28;21156;-75
2021/04/15 06:03:09;;;;;;;1.70;1.60;;;3.70;98.20;;;;;;4985574;28;20986;-75
2021/04/15 06:05:41;;;;;;;1.60;1.40;;;3.90;98.20;;;;;;5001435;28;20539;-76
2021/04/15 06:08:09;;;;;;;1.60;1.40;;;4.00;98.20;;;;;;5005884;28;20473;-76
2021/04/15 06:10:40;;;;;;;1.60;1.30;;;4.20;98.20;;;;;;5002023;28;20966;-76
2021/04/15 06:13:12;;;;;;;1.60;1.40;;;4.30;98.20;;;;;;5016675;28;20557;-75
2021/04/15 06:15:44;;;;;;;1.50;1.33;;;4.70;98.20;;;;;;5002237;28;20562;-76
2021/04/15 06:18:21;;;;;;;1.60;1.40;;;4.90;98.20;;;;;;4986778;28;20972;-75
2021/04/15 06:20:56;;;;;;;1.57;1.40;;;5.10;98.20;;;;;;4993931;28;20535;-75
2021/04/15 06:23:28;;;;;;;1.60;1.30;;;5.40;98.20;;;;;;5016972;28;20487;-75
2021/04/15 06:25:56;;;;;;;1.60;1.40;;;5.60;98.20;;;;;;4989893;28;20491;-75
2021/04/15 06:28:27;;;;;;;1.60;1.40;;;5.70;98.20;;;;;;5024662;28;20548;-75
2021/04/15 06:31:11;;;;;;;1.60;1.40;;;5.90;98.20;;;;;;4992726;28;21015;-75
2021/04/15 06:33:38;;;;;;;1.53;1.30;;;6.10;98.20;;;;;;5010207;28;20872;-74
2021/04/15 06:36:13;;;;;;;1.60;1.40;;;6.20;97.80;;;;;;4985230;28;20471;-76
2021/04/15 06:38:44;;;;;;;1.53;1.30;;;6.30;98.20;;;;;;5006193;28;20471;-76
2021/04/15 06:41:56;;;;;;;1.60;1.50;;;6.50;98.20;;;;;;5004776;28;20968;-78
2021/04/15 06:45:09;;;;;;;1.50;1.30;;;6.60;96.80;;;;;;5013986;28;20451;-78
2021/04/15 06:48:07;;;;;;;1.60;1.50;;;6.80;97.60;;;;;;4990062;28;20493;-77
2021/04/15 06:50:37;;;;;;;1.53;1.30;;;7.10;95.80;;;;;;5006660;28;21010;-77
2021/04/15 06:53:19;;;;;;;1.50;1.30;;;7.20;96.00;;;;;;4994164;28;20487;-77
2021/04/15 06:56:01;;;;;;;1.50;1.20;;;7.30;95.10;;;;;;5003694;28;20510;-79
2021/04/15 06:58:46;;;;;;;1.50;1.20;;;7.50;94.10;;;;;;4989336;28;20538;-77
2021/04/15 07:01:42;;;;;;;1.60;1.20;;;7.60;94.10;;;;;;4982281;28;20515;-76
2021/04/15 07:04:12;;;;;;;1.53;1.20;;;7.80;93.30;;;;;;4992533;28;20513;-76
2021/04/15 07:06:50;;;;;;;1.60;1.30;;;8.00;92.90;;;;;;5006630;28;20695;-77
2021/04/15 07:09:56;;;;;;;1.60;1.30;;;8.10;92.10;;;;;;5017482;28;20850;-75
2021/04/15 07:13:07;;;;;;;1.57;1.20;;;8.20;91.80;;;;;;4991075;28;20511;-78
2021/04/15 07:15:48;;;;;;;1.60;1.37;;;8.30;91.90;;;;;;4994048;28;20889;-76
2021/04/15 07:18:34;;;;;;;1.60;1.20;;;8.60;91.40;;;;;;4990462;28;21130;-75
2021/04/15 07:21:29;;;;;;;1.60;1.20;;;8.80;90.70;;;;;;4984026;28;20535;-75
2021/04/15 07:24:22;;;;;;;1.60;1.20;;;9.00;90.00;;;;;;4993210;28;20469;-76
2021/04/15 07:27:03;;;;;;;1.50;1.20;;;9.20;89.50;;;;;;4992678;28;20662;-76
2021/04/15 07:29:39;;;;;;;1.60;1.20;;;9.20;89.40;;;;;;5004477;28;20464;-77
2021/04/15 07:32:33;;;;;;;1.57;1.20;;;9.30;88.70;;;;;;4988792;28;20571;-77
2021/04/15 07:35:27;;;;;;;1.50;1.10;;;9.40;88.60;;;;;;4997548;28;20476;-77
2021/04/15 07:38:16;;;;;;;1.57;1.17;;;9.60;87.50;;;;;;4988909;28;20512;-78
2021/04/15 07:41:17;;;;;;;1.50;1.10;;;9.60;87.50;;;;;;4998296;28;20491;-79
2021/04/15 07:44:15;;;;;;;1.53;1.10;;;9.70;87.20;;;;;;4994094;28;20473;-77
2021/04/15 07:46:50;;;;;;;1.50;1.10;;;9.90;87.60;;;;;;4997490;28;20558;-77
2021/04/15 07:49:55;;;;;;;1.53;1.20;;;10.10;86.20;;;;;;4999055;28;20982;-76
2021/04/15 07:52:51;;;;;;;1.50;1.10;;;10.20;85.90;;;;;;4975140;28;20510;-78
2021/04/15 07:55:46;;;;;;;1.50;1.10;;;10.30;86.50;;;;;;5000783;28;20954;-78
2021/04/15 07:58:42;;;;;;;1.50;1.10;;;10.40;86.40;;;;;;4973133;28;20472;-77
2021/04/15 08:01:38;;;;;;;1.50;1.10;;;10.50;84.60;;;;;;4976832;28;20549;-76
2021/04/15 08:04:29;;;;;;;1.50;1.10;;;10.20;85.40;;;;;;5001222;28;20471;-77
2021/04/15 08:07:27;;;;;;;1.53;1.10;;;10.30;85.10;;;;;;4992898;28;20526;-77
2021/04/15 08:10:19;;;;;;;1.53;1.10;;;10.60;84.60;;;;;;4999073;28;21054;-77
2021/04/15 08:13:09;;;;;;;1.50;1.00;;;10.70;84.60;;;;;;4988960;28;21014;-76
2021/04/15 08:15:45;;;;;;;1.53;1.13;;;10.60;84.00;;;;;;5010447;28;20460;-78
2021/04/15 08:18:36;;;;;;;1.50;1.10;;;10.50;84.70;;;;;;4993380;28;20716;-78
2021/04/15 08:21:20;;;;;;;1.57;1.10;;;10.50;85.30;;;;;;4994637;28;20480;-78
2021/04/15 08:24:30;;;;;;;1.50;1.20;;;10.40;85.60;;;;;;5014132;28;20866;-76
2021/04/15 08:27:37;;;;;;;1.53;1.10;;;10.60;84.60;;;;;;4917495;29;20644;-77
2021/04/15 08:30:51;;;;;;;1.50;1.00;;;10.90;84.40;;;;;;4999655;28;20460;-78
2021/04/15 08:33:51;;;;;;;1.50;1.10;;;11.00;84.10;;;;;;4988001;28;20495;-79
2021/04/15 08:36:37;;;;;;;1.60;1.10;;;11.00;83.30;;;;;;4980403;28;20473;-82
2021/04/15 08:39:26;;;;;;;1.57;1.10;;;11.00;81.90;;;;;;4987261;28;20771;-81
2021/04/15 08:42:03;;;;;;;1.50;1.10;;;11.10;83.20;;;;;;4984993;28;20600;-75
2021/04/15 08:44:40;;;;;;;1.50;1.10;;;11.30;82.00;;;;;;4988812;28;20464;-78
2021/04/15 08:47:16;;;;;;;1.50;1.00;;;11.50;81.80;;;;;;5008401;28;20525;-78
2021/04/15 08:49:51;;;;;;;1.50;1.00;;;11.70;80.30;;;;;;5012918;28;20485;-79
2021/04/15 08:52:29;;;;;;;1.50;1.00;;;11.90;78.40;;;;;;4994946;28;20666;-81
2021/04/15 08:55:15;;;;;;;1.50;1.00;;;11.90;78.10;;;;;;4998461;28;20859;-79
2021/04/15 08:58:03;;;;;;;1.50;1.00;;;11.90;77.80;;;;;;4987869;28;20480;-79
2021/04/15 09:00:40;;;;;;;1.50;1.00;;;12.00;77.70;;;;;;4999875;28;20492;-79
2021/04/15 09:03:23;;;;;;;1.50;1.00;;;12.00;77.20;;;;;;4984110;28;20864;-77
2021/04/15 09:06:16;;;;;;;1.50;1.00;;;11.90;75.20;;;;;;4985243;28;20748;-76
2021/04/15 09:08:56;;;;;;;1.50;1.00;;;11.70;75.00;;;;;;4995475;28;21016;-76
2021/04/15 09:11:32;;;;;;;1.50;1.00;;;11.40;75.80;;;;;;4977946;28;20480;-77
2021/04/15 09:14:07;;;;;;;1.50;1.00;;;11.40;77.00;;;;;;5000155;28;20582;-76
2021/04/15 09:16:38;;;;;;;1.50;1.00;;;11.40;77.90;;;;;;4998543;28;20489;-77
2021/04/15 09:19:15;;;;;;;1.50;1.00;;;11.40;77.20;;;;;;5003911;28;20882;-78
2021/04/15 09:21:52;;;;;;;1.50;1.00;;;11.40;76.80;;;;;;4999420;28;20502;-79
2021/04/15 09:24:34;;;;;;;1.50;1.00;;;11.30;77.50;;;;;;5003892;28;20561;-78
2021/04/15 09:27:24;;;;;;;1.50;1.10;;;11.20;77.30;;;;;;4979658;28;20861;-80
2021/04/15 09:30:08;;;;;;;1.50;1.00;;;11.20;77.10;;;;;;4990127;28;20472;-78
2021/04/15 09:32:41;;;;;;;1.50;1.00;;;11.10;77.20;;;;;;5007844;28;20479;-77
2021/04/15 09:35:25;;;;;;;1.50;1.00;;;10.90;76.60;;;;;;5003789;28;20830;-78
2021/04/15 09:38:43;;;;;;;1.50;1.00;;;10.80;77.40;;;;;;5006127;28;20517;-78
2021/04/15 09:41:46;;;;;;;1.50;1.00;;;10.90;77.20;;;;;;4987127;28;20629;-79
2021/04/15 09:44:28;;;;;;;1.50;1.10;;;11.00;75.60;;;;;;4990432;28;20464;-77
2021/04/15 09:47:01;;;;;;;1.50;1.00;;;11.40;76.10;;;;;;4994052;28;20498;-81
2021/04/15 09:49:39;;;;;;;1.50;1.00;;;11.50;74.10;;;;;;5006621;28;20460;-80
2021/04/15 09:52:37;;;;;;;1.50;1.07;;;11.50;74.20;;;;;;4989155;28;20902;-79
2021/04/15 09:55:20;;;;;;;1.50;1.03;;;11.20;72.60;;;;;;5000907;28;20496;-78
2021/04/15 09:57:53;;;;;;;1.50;1.10;;;11.10;71.50;;;;;;4995497;28;20487;-81
2021/04/15 10:00:25;;;;;;;1.50;1.00;;;10.70;73.50;;;;;;4997604;28;20530;-80
2021/04/15 10:03:24;;;;;;;1.47;1.00;;;10.60;74.20;;;;;;4991568;28;20488;-77
2021/04/15 10:06:06;;;;;;;1.50;1.20;;;10.70;76.80;;;;;;4986865;28;20477;-79
2021/04/15 10:08:42;;;;;;;1.50;1.10;;;10.80;73.70;;;;;;5019551;28;20486;-80
2021/04/15 10:11:23;;;;;;;1.50;1.10;;;11.10;74.40;;;;;;4989226;28;20756;-78
2021/04/15 10:14:18;;;;;;;1.50;1.00;;;11.40;74.30;;;;;;4999426;28;20619;-78
2021/04/15 10:16:51;;;;;;;1.50;1.00;;;11.50;73.10;;;;;;4990999;28;20500;-79
2021/04/15 10:20:09;;;;;;;1.50;1.00;;;11.60;74.60;;;;;;5021927;23;20498;-77
2021/04/15 10:22:45;;;;;;;1.50;1.20;;;11.50;75.10;;;;;;4986712;28;21002;-78
2021/04/15 10:25:16;;;;;;;1.50;1.10;;;11.40;74.00;;;;;;5003359;28;20470;-77
2021/04/15 10:28:16;;;;;;;1.50;1.10;;;11.30;74.80;;;;;;4978727;28;20485;-78
2021/04/15 10:31:08;;;;;;;1.87;1.77;;;11.30;75.30;;;;;;4994275;28;20925;-76
2021/04/15 10:34:03;;;;;;;1.50;1.00;;;11.50;75.80;;;;;;4991546;28;20487;-77
2021/04/15 10:36:56;;;;;;;1.50;0.90;;;11.80;74.20;;;;;;4988309;28;20486;-81
2021/04/15 10:39:59;;;;;;;1.50;0.90;;;12.00;72.30;;;;;;4993323;28;20463;-78
2021/04/15 10:42:54;;;;;;;1.50;1.00;;;12.00;72.10;;;;;;5004479;28;20557;-78
2021/04/15 10:45:50;;;;;;;1.50;0.90;;;12.40;70.90;;;;;;5005464;28;20463;-77
2021/04/15 10:48:35;;;;;;;1.50;1.00;;;12.90;69.90;;;;;;4979948;28;20484;-77
2021/04/15 10:51:05;;;;;;;1.50;0.90;;;13.00;71.00;;;;;;4992340;28;20571;-80
2021/04/15 10:53:48;;;;;;;1.50;1.00;;;13.30;70.50;;;;;;4993864;28;20489;-80
2021/04/15 10:56:31;;;;;;;1.50;1.10;;;13.30;70.10;;;;;;4991933;28;20476;-77
2021/04/15 10:59:09;;;;;;;1.50;1.00;;;13.30;70.40;;;;;;4997580;28;20487;-78
2021/04/15 11:01:39;;;;;;;1.50;1.00;;;13.10;69.20;;;;;;4997456;28;20621;-76
2021/04/15 11:04:23;;;;;;;1.50;1.00;;;12.90;70.60;;;;;;5000059;28;20468;-77
2021/04/15 11:06:53;;;;;;;1.60;1.10;;;12.90;70.10;;;;;;4995438;28;20525;-77
2021/04/15 11:09:31;;;;;;;1.50;0.90;;;13.20;71.10;;;;;;5014593;28;20468;-76
2021/04/15 11:12:02;;;;;;;1.50;1.00;;;13.40;69.10;;;;;;4981091;28;20519;-80
2021/04/15 11:14:34;;;;;;;1.50;0.93;;;13.70;68.50;;;;;;5003819;28;20489;-80
2021/04/15 11:17:02;;;;;;;1.50;1.10;;;14.00;68.30;;;;;;4988514;28;20599;-80
2021/04/15 11:19:31;;;;;;;1.50;1.00;;;14.20;69.60;;;;;;4998514;28;20568;-81
2021/04/15 11:22:10;;;;;;;1.50;1.00;;;14.50;69.10;;;;;;4996072;28;20516;-80
2021/04/15 11:24:41;;;;;;;1.50;0.90;;;14.60;68.20;;;;;;4999468;28;20470;-80
2021/04/15 11:27:08;;;;;;;1.50;0.90;;;14.70;66.30;;;;;;4991765;28;20489;-79
2021/04/15 11:29:39;;;;;;;1.50;1.00;;;14.70;66.80;;;;;;5000424;28;20496;-79
2021/04/15 11:32:22;;;;;;;1.50;1.00;;;14.80;67.60;;;;;;4985586;28;20524;-80
2021/04/15 11:35:03;;;;;;;1.50;1.00;;;14.80;65.90;;;;;;5003460;28;20577;-79
2021/04/15 11:37:29;;;;;;;1.50;1.00;;;14.90;66.20;;;;;;4986230;28;20497;-79
2021/04/15 11:40:22;;;;;;;1.80;1.30;;;14.90;65.90;;;;;;4999368;28;20469;-79
2021/04/15 11:42:49;;;;;;;1.50;1.00;;;14.90;63.80;;;;;;4991508;28;21021;-79
2021/04/15 11:45:29;;;;;;;1.50;0.90;;;14.90;64.90;;;;;;5006382;28;20484;-80
2021/04/15 11:48:10;;;;;;;1.50;1.00;;;15.10;65.40;;;;;;4984865;28;20822;-79
2021/04/15 11:50:37;;;;;;;1.50;0.93;;;15.50;65.10;;;;;;5008989;28;20868;-80
2021/04/15 11:53:24;;;;;;;1.60;1.20;;;15.60;63.90;;;;;;5005052;28;21189;-81
2021/04/15 11:55:51;;;;;;;1.50;1.00;;;15.80;63.90;;;;;;4997726;28;20465;-80
2021/04/15 11:58:32;;;;;;;1.50;0.90;;;15.80;63.40;;;;;;5024342;28;20555;-80
2021/04/15 12:01:00;;;;;;;1.50;1.20;;;15.50;62.10;;;;;;4985321;28;20480;-79
2021/04/15 12:03:28;;;;;;;1.50;0.90;;;15.40;63.40;;;;;;4998049;28;20525;-79
2021/04/15 12:06:01;;;;;;;1.50;0.90;;;15.00;62.50;;;;;;4982870;28;20782;-80
2021/04/15 12:08:31;;;;;;;1.50;0.80;;;14.70;63.50;;;;;;4992900;28;20475;-81
2021/04/15 12:11:02;;;;;;;1.50;0.90;;;14.40;63.80;;;;;;4991500;28;20826;-78
2021/04/15 12:13:35;;;;;;;1.50;0.90;;;14.50;64.50;;;;;;5003458;28;20476;-81
2021/04/15 12:16:11;;;;;;;1.50;1.00;;;14.50;62.60;;;;;;4992506;28;20712;-80
2021/04/15 12:18:41;;;;;;;1.50;0.90;;;14.00;62.90;;;;;;5001844;28;20762;-78
2021/04/15 12:21:13;;;;;;;1.50;1.00;;;13.70;63.50;;;;;;4989647;28;20749;-83
2021/04/15 12:23:48;;;;;;;1.50;1.00;;;13.60;64.30;;;;;;5000700;28;20464;-78
2021/04/15 12:26:22;;;;;;;1.50;1.00;;;13.50;63.10;;;;;;4983791;28;20489;-81
2021/04/15 12:28:59;;;;;;;1.50;0.97;;;13.40;62.30;;;;;;4997501;28;20869;-80
2021/04/15 12:31:32;;;;;;;1.50;1.00;;;13.30;64.10;;;;;;4990103;28;20492;-79
2021/04/15 12:34:14;;;;;;;1.50;1.00;;;13.60;64.20;;;;;;4995342;28;20561;-78
2021/04/15 12:36:46;;;;;;;1.47;0.90;;;13.90;64.40;;;;;;4985869;28;20476;-79
2021/04/15 12:39:16;;;;;;;1.50;1.10;;;14.20;63.80;;;;;;4997749;28;20529;-81
2021/04/15 12:41:45;;;;;;;1.50;0.90;;;14.50;62.90;;;;;;4982554;28;21043;-80
2021/04/15 12:44:19;;;;;;;1.50;1.00;;;14.70;64.70;;;;;;4994485;28;20487;-80
2021/04/15 12:46:46;;;;;;;1.50;0.90;;;14.70;61.80;;;;;;4992317;28;20566;-79
2021/04/15 12:49:17;;;;;;;1.50;1.00;;;14.70;63.40;;;;;;5007324;28;20987;-79
2021/04/15 12:51:46;;;;;;;1.50;0.90;;;14.90;61.70;;;;;;4992696;28;20484;-80
2021/04/15 12:54:16;;;;;;;1.50;0.90;;;15.20;63.40;;;;;;4995726;28;20494;-78
2021/04/15 12:56:47;;;;;;;1.50;0.90;;;15.50;63.40;;;;;;4991313;28;20481;-79
2021/04/15 12:59:18;;;;;;;1.50;0.90;;;15.80;63.20;;;;;;4991169;28;20576;-80
2021/04/15 13:01:44;;;;;;;1.50;0.90;;;15.80;61.60;;;;;;4991510;28;20492;-80
2021/04/15 13:04:16;;;;;;;1.50;0.90;;;15.50;60.70;;;;;;5000358;28;20470;-78
2021/04/15 13:07:09;;;;;;;1.47;0.90;;;15.10;61.60;;;;;;4986774;28;20489;-78
2021/04/15 13:09:37;;;;;;;1.50;1.00;;;14.60;62.60;;;;;;4993441;28;20465;-78
2021/04/15 13:12:23;;;;;;;1.50;0.90;;;14.10;63.50;;;;;;5003744;28;20489;-80
2021/04/15 13:14:52;;;;;;;1.50;0.90;;;13.80;64.10;;;;;;5002816;28;20488;-80
2021/04/15 13:17:46;;;;;;;1.50;0.90;;;13.80;64.20;;;;;;4994554;28;20514;-79
2021/04/15 13:20:30;;;;;;;1.70;1.33;;;14.00;64.10;;;;;;5002926;28;20472;-79
2021/04/15 13:23:19;;;;;;;1.50;1.00;;;14.30;62.70;;;;;;4997871;28;20499;-78
2021/04/15 13:26:18;;;;;;;1.50;0.90;;;14.60;61.40;;;;;;5006084;28;20986;-79
2021/04/15 13:29:20;;;;;;;1.47;0.90;;;14.80;62.00;;;;;;4991465;28;20488;-79
2021/04/15 13:31:54;;;;;;;1.43;0.90;;;15.10;61.00;;;;;;4944481;28;20652;-79
2021/04/15 13:34:22;;;;;;;1.47;0.90;;;15.40;61.60;;;;;;4995433;28;20490;-81
2021/04/15 13:36:50;;;;;;;1.47;0.90;;;15.70;61.10;;;;;;4996722;28;21109;-78
2021/04/15 13:39:42;;;;;;;1.47;0.90;;;15.80;59.40;;;;;;5003984;28;20473;-78
2021/04/15 13:42:35;;;;;;;1.50;0.90;;;15.70;59.80;;;;;;4989099;28;20900;-80
2021/04/15 13:45:06;;;;;;;1.47;0.90;;;15.40;59.90;;;;;;4996756;28;20983;-79